Time;durP1;ratioP1;P1;durP2;ratioP2;P2;SDS_P1;SDS_P2;PMS_P1;PMS_P2;Temp;Humidity;BMP_temperature;BMP_pressure;BME280_temperature;BME280_humidity;BME280_pressure;Samples;Min_cycle;Max_cycle;Signal;HPM_P1;HPM_P2
2021/06/13 00:00:32;;;;;;;6.53;5.50;;;;;;;;;;5016715;28;20180;-86
2021/06/13 00:03:37;;;;;;;8.77;5.13;;;;;;;;;;5002748;28;20189;-85
2021/06/13 00:06:42;;;;;;;6.93;4.73;;;;;;;;;;5027980;28;20184;-86
2021/06/13 00:09:47;;;;;;;5.70;5.10;;;;;;;;;;5033415;28;20184;-86
2021/06/13 00:12:51;;;;;;;7.33;5.20;;;;;;;;;;5022024;28;20549;-85
2021/06/13 00:15:55;;;;;;;7.37;4.90;;;;;;;;;;5030996;28;20204;-86
2021/06/13 00:18:59;;;;;;;6.20;5.00;;;;;;;;;;5018246;28;20694;-85
2021/06/13 00:22:03;;;;;;;6.77;4.53;;;;;;;;;;5044531;28;20176;-85
2021/06/13 00:25:09;;;;;;;6.27;5.33;;;;;;;;;;5007261;28;20200;-86
2021/06/13 00:28:13;;;;;;;5.80;4.33;;;;;;;;;;5040315;22;20228;-87
2021/06/13 00:31:18;;;;;;;5.30;4.77;;;;;;;;;;5031641;28;20207;-84
2021/06/13 00:34:24;;;;;;;5.80;4.90;;;;;;;;;;5032363;28;20180;-85
2021/06/13 00:37:28;;;;;;;6.23;5.00;;;;;;;;;;5032416;28;20203;-85
2021/06/13 00:40:34;;;;;;;7.97;5.30;;;;;;;;;;5040013;28;20196;-85
2021/06/13 00:43:38;;;;;;;7.77;5.27;;;;;;;;;;5023639;28;20192;-85
2021/06/13 00:46:42;;;;;;;9.77;5.13;;;;;;;;;;5019255;28;20184;-84
2021/06/13 00:49:48;;;;;;;8.13;4.97;;;;;;;;;;4992843;28;20225;-85
2021/06/13 00:52:52;;;;;;;6.10;4.97;;;;;;;;;;5021350;28;20196;-85
2021/06/13 00:55:58;;;;;;;8.53;5.30;;;;;;;;;;5018763;28;20213;-84
2021/06/13 00:59:03;;;;;;;5.93;4.67;;;;;;;;;;5027289;28;20220;-85
2021/06/13 01:02:08;;;;;;;5.63;4.80;;;;;;;;;;5007700;28;20651;-85
2021/06/13 01:05:13;;;;;;;7.33;5.20;;;;;;;;;;5008353;28;20196;-85
2021/06/13 01:08:21;;;;;;;6.67;5.47;;;;;;;;;;5028373;28;20192;-84
2021/06/13 01:11:33;;;;;;;5.97;5.10;;;;;;;;;;5023249;28;20537;-85
2021/06/13 01:15:11;;;;;;;6.47;4.83;;;;;;;;;;5038184;28;20188;-85
2021/06/13 01:18:29;;;;;;;8.90;5.37;;;;;;;;;;5030733;28;20185;-84
2021/06/13 01:21:43;;;;;;;6.90;5.27;;;;;;;;;;5011657;28;20205;-85
2021/06/13 01:25:24;;;;;;;7.80;5.67;;;;;;;;;;5045944;28;20196;-85
2021/06/13 01:29:07;;;;;;;7.63;5.67;;;;;;;;;;5018931;28;20244;-85
2021/06/13 01:32:17;;;;;;;6.73;5.50;;;;;;;;;;5000747;28;20181;-85
2021/06/13 01:35:25;;;;;;;12.73;5.80;;;;;;;;;;5038510;28;20184;-85
2021/06/13 01:38:32;;;;;;;10.40;5.50;;;;;;;;;;5016024;28;20214;-85
2021/06/13 01:41:37;;;;;;;7.77;5.60;;;;;;;;;;5003809;28;20192;-85
2021/06/13 01:44:47;;;;;;;6.33;5.63;;;;;;;;;;4995899;28;20190;-85
2021/06/13 01:47:57;;;;;;;9.80;5.40;;;;;;;;;;5008131;28;20190;-85
2021/06/13 01:51:02;;;;;;;8.57;5.60;;;;;;;;;;5014289;28;20181;-85
2021/06/13 01:54:07;;;;;;;7.20;6.07;;;;;;;;;;5009566;28;20192;-84
2021/06/13 01:57:14;;;;;;;9.87;6.47;;;;;;;;;;5037327;28;20208;-85
2021/06/13 02:00:46;;;;;;;10.70;6.90;;;;;;;;;;5045482;28;20188;-84
2021/06/13 02:03:58;;;;;;;6.23;5.50;;;;;;;;;;5053309;28;20195;-85
2021/06/13 02:07:21;;;;;;;6.60;5.50;;;;;;;;;;5008073;28;20545;-85
2021/06/13 02:10:27;;;;;;;9.20;6.43;;;;;;;;;;5035073;28;20220;-85
2021/06/13 02:13:32;;;;;;;9.17;5.97;;;;;;;;;;5028662;28;20188;-84
2021/06/13 02:16:43;;;;;;;7.07;6.07;;;;;;;;;;5032789;28;20208;-84
2021/06/13 02:19:49;;;;;;;9.23;6.30;;;;;;;;;;4995113;28;20224;-84
2021/06/13 02:22:59;;;;;;;7.17;6.40;;;;;;;;;;5021390;28;20181;-85
2021/06/13 02:26:04;;;;;;;10.50;7.10;;;;;;;;;;4991214;28;20197;-84
2021/06/13 02:29:10;;;;;;;9.60;6.87;;;;;;;;;;5003033;28;20224;-84
2021/06/13 02:32:16;;;;;;;11.10;6.63;;;;;;;;;;5041658;28;20646;-85
2021/06/13 02:35:22;;;;;;;8.87;6.63;;;;;;;;;;5030108;28;20188;-84
2021/06/13 02:38:30;;;;;;;12.10;6.70;;;;;;;;;;5020399;28;20544;-85
2021/06/13 02:41:37;;;;;;;9.00;6.57;;;;;;;;;;5021665;28;20188;-85
2021/06/13 02:44:44;;;;;;;8.73;6.80;;;;;;;;;;5019442;28;20184;-85
2021/06/13 02:47:50;;;;;;;8.40;6.27;;;;;;;;;;5020260;28;20651;-84
2021/06/13 02:50:57;;;;;;;6.90;6.20;;;;;;;;;;5040014;28;20647;-85
2021/06/13 02:54:10;;;;;;;9.00;6.60;;;;;;;;;;5007120;28;20204;-85
2021/06/13 02:57:22;;;;;;;7.67;6.80;;;;;;;;;;5024284;28;20200;-85
2021/06/13 03:00:27;;;;;;;10.03;6.93;;;;;;;;;;5025500;28;20572;-84
2021/06/13 03:03:33;;;;;;;7.07;6.33;;;;;;;;;;5033751;28;20180;-85
2021/06/13 03:06:38;;;;;;;9.30;6.80;;;;;;;;;;5036795;28;20667;-84
2021/06/13 03:09:43;;;;;;;12.30;7.57;;;;;;;;;;5003512;28;20216;-85
2021/06/13 03:12:55;;;;;;;8.60;6.30;;;;;;;;;;5021146;28;20189;-85
2021/06/13 03:16:02;;;;;;;7.27;5.83;;;;;;;;;;5037464;28;20184;-85
2021/06/13 03:19:09;;;;;;;8.50;6.90;;;;;;;;;;5052750;28;20219;-85
2021/06/13 03:22:15;;;;;;;8.40;6.90;;;;;;;;;;5032662;28;20544;-84
2021/06/13 03:25:20;;;;;;;9.10;6.40;;;;;;;;;;5052719;28;20199;-85
2021/06/13 03:28:25;;;;;;;8.97;6.30;;;;;;;;;;5006106;28;20204;-83
2021/06/13 03:31:31;;;;;;;10.53;6.50;;;;;;;;;;5001336;28;20192;-85
2021/06/13 03:34:41;;;;;;;8.03;6.80;;;;;;;;;;5022331;28;20184;-84
2021/06/13 03:37:45;;;;;;;9.13;6.93;;;;;;;;;;5003521;28;20209;-85
2021/06/13 03:40:52;;;;;;;7.57;6.20;;;;;;;;;;5021092;28;20177;-85
2021/06/13 03:43:57;;;;;;;8.67;6.63;;;;;;;;;;5036575;28;20520;-85
2021/06/13 03:47:01;;;;;;;10.57;6.73;;;;;;;;;;5027433;28;20675;-85
2021/06/13 03:50:07;;;;;;;9.60;7.03;;;;;;;;;;5032100;28;20212;-85
2021/06/13 03:53:13;;;;;;;10.83;7.30;;;;;;;;;;5022508;28;20648;-85
2021/06/13 03:56:19;;;;;;;8.25;6.80;;;;;;;;;;5025445;28;20193;-85
2021/06/13 03:59:26;;;;;;;8.60;7.13;;;;;;;;;;5021059;28;20220;-85
2021/06/13 04:02:31;;;;;;;11.90;6.77;;;;;;;;;;5011457;28;20209;-85
2021/06/13 04:05:39;;;;;;;8.23;6.87;;;;;;;;;;5021055;28;20185;-85
2021/06/13 04:08:44;;;;;;;8.00;6.37;;;;;;;;;;5026162;28;20204;-85
2021/06/13 04:11:50;;;;;;;8.27;6.60;;;;;;;;;;5020685;28;20177;-85
2021/06/13 04:14:55;;;;;;;10.80;7.03;;;;;;;;;;5032555;28;20176;-85
2021/06/13 04:17:59;;;;;;;9.30;6.97;;;;;;;;;;5019891;28;20205;-85
2021/06/13 04:21:05;;;;;;;12.77;6.07;;;;;;;;;;5021255;28;20196;-85
2021/06/13 04:24:17;;;;;;;9.00;6.07;;;;;;;;;;5049621;28;20197;-86
2021/06/13 04:27:25;;;;;;;6.60;5.90;;;;;;;;;;5021300;28;20192;-85
2021/06/13 04:30:29;;;;;;;8.40;6.67;;;;;;;;;;5022865;28;20228;-85
2021/06/13 04:33:34;;;;;;;8.50;6.23;;;;;;;;;;5022566;28;20648;-85
2021/06/13 04:36:38;;;;;;;8.20;5.93;;;;;;;;;;5032222;28;20200;-85
2021/06/13 04:39:42;;;;;;;14.53;7.33;;;;;;;;;;5043959;28;20219;-85
2021/06/13 04:42:46;;;;;;;7.23;5.90;;;;;;;;;;5043895;28;20243;-85
2021/06/13 04:45:50;;;;;;;7.50;5.73;;;;;;;;;;5043334;28;20655;-87
2021/06/13 04:48:55;;;;;;;7.37;5.57;;;;;;;;;;5041492;28;20694;-84
2021/06/13 04:52:00;;;;;;;7.53;5.60;;;;;;;;;;5043154;28;20192;-85
2021/06/13 04:55:16;;;;;;;8.83;6.00;;;;;;;;;;5043649;28;20243;-85
2021/06/13 04:58:24;;;;;;;8.77;5.60;;;;;;;;;;5043179;28;20212;-85
2021/06/13 05:01:29;;;;;;;6.63;4.80;;;;;;;;;;5028482;28;20651;-85
2021/06/13 05:04:33;;;;;;;9.50;5.13;;;;;;;;;;5026303;28;20185;-86
2021/06/13 05:07:38;;;;;;;8.97;5.37;;;;;;;;;;5034816;28;20173;-85
2021/06/13 05:10:42;;;;;;;8.27;5.37;;;;;;;;;;5053373;28;20191;-85
2021/06/13 05:13:46;;;;;;;5.87;5.20;;;;;;;;;;5041796;28;20180;-86
2021/06/13 05:16:50;;;;;;;7.90;5.40;;;;;;;;;;5019352;28;20189;-86
2021/06/13 05:19:54;;;;;;;7.40;5.17;;;;;;;;;;5022670;28;20224;-85
2021/06/13 05:23:02;;;;;;;5.47;4.20;;;;;;;;;;5012137;28;20197;-85
2021/06/13 05:26:07;;;;;;;5.20;4.00;;;;;;;;;;5023234;28;20723;-85
2021/06/13 05:29:11;;;;;;;8.17;4.43;;;;;;;;;;5003988;28;20569;-87
2021/06/13 05:32:15;;;;;;;8.97;4.53;;;;;;;;;;5025053;28;20192;-87
2021/06/13 05:35:20;;;;;;;6.33;4.30;;;;;;;;;;5042447;28;20192;-86
2021/06/13 05:38:25;;;;;;;6.70;4.37;;;;;;;;;;5031204;28;20200;-87
2021/06/13 05:41:29;;;;;;;5.53;3.80;;;;;;;;;;5031623;28;20527;-87
2021/06/13 05:44:32;;;;;;;5.73;3.87;;;;;;;;;;5012461;28;20188;-86
2021/06/13 05:47:38;;;;;;;6.47;3.90;;;;;;;;;;5040460;28;20184;-87
2021/06/13 05:50:42;;;;;;;7.60;3.17;;;;;;;;;;5031129;28;20184;-87
2021/06/13 05:53:46;;;;;;;6.60;3.13;;;;;;;;;;5006292;28;20189;-87
2021/06/13 05:56:50;;;;;;;6.53;3.03;;;;;;;;;;5021921;28;20196;-86
2021/06/13 05:59:54;;;;;;;6.20;3.43;;;;;;;;;;5033494;28;20216;-86
2021/06/13 06:02:59;;;;;;;5.97;3.23;;;;;;;;;;5039423;28;20193;-87
2021/06/13 06:06:03;;;;;;;5.27;3.23;;;;;;;;;;5002872;28;20174;-86
2021/06/13 06:09:07;;;;;;;10.30;2.97;;;;;;;;;;4997646;28;20557;-85
2021/06/13 06:12:12;;;;;;;5.87;2.80;;;;;;;;;;5048495;28;20670;-85
2021/06/13 06:15:20;;;;;;;7.60;2.43;;;;;;;;;;5031509;28;20189;-85
2021/06/13 06:18:24;;;;;;;7.67;2.77;;;;;;;;;;5013799;28;20204;-86
2021/06/13 06:21:28;;;;;;;3.87;2.60;;;;;;;;;;5025385;28;20552;-85
2021/06/13 06:24:33;;;;;;;4.80;2.50;;;;;;;;;;5030185;28;20196;-84
2021/06/13 06:27:37;;;;;;;3.43;2.10;;;;;;;;;;5015359;28;20189;-82
2021/06/13 06:30:43;;;;;;;3.30;2.07;;;;;;;;;;5060903;22;20228;-85
2021/06/13 06:33:49;;;;;;;6.83;2.40;;;;;;;;;;5059310;28;20180;-90
2021/06/13 06:36:53;;;;;;;4.63;1.90;;;;;;;;;;5051324;28;20185;-85
2021/06/13 06:39:57;;;;;;;3.83;2.10;;;;;;;;;;5042306;28;20211;-85
2021/06/13 06:43:01;;;;;;;3.97;2.30;;;;;;;;;;5046281;28;20200;-85
2021/06/13 06:46:06;;;;;;;7.43;2.40;;;;;;;;;;5034529;28;20671;-85
2021/06/13 06:49:11;;;;;;;4.83;2.30;;;;;;;;;;5022602;28;20556;-85
2021/06/13 06:52:16;;;;;;;3.67;2.17;;;;;;;;;;5034022;28;20647;-84
2021/06/13 06:55:20;;;;;;;5.90;1.97;;;;;;;;;;5037781;28;20176;-85
2021/06/13 06:58:24;;;;;;;6.03;2.20;;;;;;;;;;5036758;28;20677;-85
2021/06/13 07:01:29;;;;;;;6.33;2.60;;;;;;;;;;5035802;28;20188;-85
2021/06/13 07:04:33;;;;;;;6.20;2.37;;;;;;;;;;5037655;28;20193;-85
2021/06/13 07:07:37;;;;;;;6.23;2.03;;;;;;;;;;5055650;28;20176;-85
2021/06/13 07:10:42;;;;;;;4.53;1.90;;;;;;;;;;5055063;28;20685;-85
2021/06/13 07:13:46;;;;;;;8.93;2.17;;;;;;;;;;5034068;28;20189;-85
2021/06/13 07:16:50;;;;;;;7.10;2.60;;;;;;;;;;5024979;28;20180;-85
2021/06/13 07:19:55;;;;;;;7.90;2.50;;;;;;;;;;5024129;28;20208;-86
2021/06/13 07:22:58;;;;;;;6.83;2.23;;;;;;;;;;5022299;28;20196;-86
2021/06/13 07:26:03;;;;;;;5.17;1.80;;;;;;;;;;5034253;28;20185;-86
2021/06/13 07:29:08;;;;;;;3.63;1.90;;;;;;;;;;5013047;28;20216;-86
2021/06/13 07:32:12;;;;;;;8.57;2.23;;;;;;;;;;5021530;28;20181;-86
2021/06/13 07:35:18;;;;;;;5.33;1.83;;;;;;;;;;5021576;28;20185;-86
2021/06/13 07:38:23;;;;;;;6.43;2.07;;;;;;;;;;5039168;28;20241;-87
2021/06/13 07:41:27;;;;;;;5.30;1.93;;;;;;;;;;5021359;28;20521;-86
2021/06/13 07:44:32;;;;;;;5.67;1.93;;;;;;;;;;5049293;28;20192;-87
2021/06/13 07:47:37;;;;;;;5.20;1.83;;;;;;;;;;5012971;28;20177;-85
2021/06/13 07:50:43;;;;;;;5.50;2.00;;;;;;;;;;5012918;28;20217;-85
2021/06/13 07:53:47;;;;;;;3.90;2.00;;;;;;;;;;5016922;28;20628;-86
2021/06/13 07:56:52;;;;;;;5.30;2.43;;;;;;;;;;5017565;28;20185;-86
2021/06/13 07:59:56;;;;;;;5.43;2.50;;;;;;;;;;5021862;28;20224;-85
2021/06/13 08:03:01;;;;;;;4.03;2.00;;;;;;;;;;5025349;28;20173;-85
2021/06/13 08:06:06;;;;;;;3.23;2.07;;;;;;;;;;5041883;28;20196;-84
2021/06/13 08:09:11;;;;;;;11.03;2.33;;;;;;;;;;5016948;28;20213;-85
2021/06/13 08:12:15;;;;;;;5.53;2.10;;;;;;;;;;5015278;28;20174;-85
2021/06/13 08:15:19;;;;;;;4.33;1.80;;;;;;;;;;5049616;28;20172;-85
2021/06/13 08:18:25;;;;;;;5.43;2.60;;;;;;;;;;5060847;28;20207;-85
2021/06/13 08:21:29;;;;;;;4.83;2.43;;;;;;;;;;5059507;28;20180;-85
2021/06/13 08:24:34;;;;;;;5.63;2.47;;;;;;;;;;5046510;28;20185;-84
2021/06/13 08:27:38;;;;;;;6.17;2.57;;;;;;;;;;5036021;28;20664;-84
2021/06/13 08:30:42;;;;;;;3.87;2.20;;;;;;;;;;5029135;28;20228;-83
2021/06/13 08:33:46;;;;;;;5.57;2.17;;;;;;;;;;5034430;28;20200;-83
2021/06/13 08:36:52;;;;;;;5.83;2.27;;;;;;;;;;5039696;28;20193;-85
2021/06/13 08:39:57;;;;;;;6.63;2.60;;;;;;;;;;5018561;28;20233;-84
2021/06/13 08:43:02;;;;;;;6.00;2.50;;;;;;;;;;5030231;28;20193;-86
2021/06/13 08:46:07;;;;;;;3.17;2.10;;;;;;;;;;5025736;28;20198;-86
2021/06/13 08:49:11;;;;;;;8.27;2.50;;;;;;;;;;5007393;28;20413;-85
2021/06/13 08:52:16;;;;;;;4.43;2.33;;;;;;;;;;5022433;28;20178;-85
2021/06/13 08:55:22;;;;;;;5.83;2.50;;;;;;;;;;5048618;28;20197;-85
2021/06/13 08:58:27;;;;;;;4.97;1.90;;;;;;;;;;5033711;28;20216;-84
2021/06/13 09:01:31;;;;;;;7.30;2.57;;;;;;;;;;5027452;28;20552;-85
2021/06/13 09:04:35;;;;;;;4.87;2.13;;;;;;;;;;5042741;28;20202;-84
2021/06/13 09:07:52;;;;;;;6.90;2.40;;;;;;;;;;5031631;28;20195;-84
2021/06/13 09:10:56;;;;;;;4.37;2.30;;;;;;;;;;5033818;28;20194;-84
2021/06/13 09:14:27;;;;;;;6.23;2.27;;;;;;;;;;5035956;28;20181;-84
2021/06/13 09:17:32;;;;;;;4.57;2.50;;;;;;;;;;5054931;28;20180;-83
2021/06/13 09:20:42;;;;;;;5.15;1.95;;;;;;;;;;5048752;28;20211;-84
2021/06/13 09:23:46;;;;;;;5.60;2.20;;;;;;;;;;5060374;28;20658;-84
2021/06/13 09:26:55;;;;;;;6.50;2.03;;;;;;;;;;5061126;28;20200;-87
2021/06/13 09:29:59;;;;;;;4.85;2.10;;;;;;;;;;5061446;28;20232;-87
2021/06/13 09:33:09;;;;;;;4.07;2.20;;;;;;;;;;5047260;28;20177;-86
2021/06/13 09:36:20;;;;;;;2.95;1.80;;;;;;;;;;5036977;28;20189;-86
2021/06/13 09:39:25;;;;;;;5.20;1.92;;;;;;;;;;5037314;28;20216;-87
2021/06/13 09:42:30;;;;;;;3.60;1.70;;;;;;;;;;5032672;28;20179;-87
2021/06/13 09:45:34;;;;;;;5.18;1.60;;;;;;;;;;5037494;28;20185;-88
2021/06/13 09:48:41;;;;;;;4.40;1.73;;;;;;;;;;5011715;28;20636;-87
2021/06/13 09:51:49;;;;;;;2.35;1.60;;;;;;;;;;5012138;28;20203;-87
2021/06/13 09:55:10;;;;;;;6.45;2.92;;;;;;;;;;5049384;28;20197;-87
2021/06/13 09:58:16;;;;;;;5.82;2.40;;;;;;;;;;5053521;28;20177;-87
2021/06/13 10:01:24;;;;;;;7.22;1.42;;;;;;;;;;5049014;28;20198;-86
2021/06/13 10:04:35;;;;;;;4.85;2.05;;;;;;;;;;5020951;28;20204;-85
2021/06/13 10:07:39;;;;;;;5.72;2.50;;;;;;;;;;5033685;28;20191;-89
2021/06/13 10:10:43;;;;;;;4.10;1.48;;;;;;;;;;5022599;28;20214;-85
2021/06/13 10:13:53;;;;;;;4.00;1.70;;;;;;;;;;5041608;28;20535;-87
2021/06/13 10:16:58;;;;;;;2.78;1.70;;;;;;;;;;5031298;28;20189;-87
2021/06/13 10:20:02;;;;;;;3.67;1.65;;;;;;;;;;5036738;28;20225;-90
2021/06/13 10:23:07;;;;;;;7.38;1.70;;;;;;;;;;5036993;28;20198;-86
2021/06/13 10:26:11;;;;;;;2.88;1.40;;;;;;;;;;5059555;28;20672;-86
2021/06/13 10:29:17;;;;;;;3.25;1.40;;;;;;;;;;5047104;28;20222;-86
2021/06/13 10:32:22;;;;;;;3.17;1.27;;;;;;;;;;5045418;28;20511;-86
2021/06/13 10:35:27;;;;;;;2.78;1.10;;;;;;;;;;5012686;28;20202;-86
2021/06/13 10:38:31;;;;;;;3.15;1.10;;;;;;;;;;5024491;28;20195;-92
2021/06/13 10:41:36;;;;;;;2.15;1.10;;;;;;;;;;5014299;28;20196;-92
2021/06/13 10:44:51;;;;;;;3.63;1.05;;;;;;;;;;5025639;28;20185;-91
2021/06/13 10:48:09;;;;;;;1.95;0.85;;;;;;;;;;5013235;28;20191;-92
2021/06/13 10:51:33;;;;;;;4.20;1.23;;;;;;;;;;5012452;28;20233;-90
2021/06/13 10:54:49;;;;;;;3.45;1.08;;;;;;;;;;5047063;28;20648;-89
2021/06/13 10:57:54;;;;;;;1.60;0.85;;;;;;;;;;5029070;28;20196;-89
2021/06/13 11:01:21;;;;;;;2.83;1.20;;;;;;;;;;5053086;28;20577;-89
2021/06/13 11:04:45;;;;;;;4.03;1.20;;;;;;;;;;5041199;28;20193;-89
2021/06/13 11:07:56;;;;;;;2.60;1.30;;;;;;;;;;5019869;28;20190;-89
2021/06/13 11:11:00;;;;;;;3.03;1.17;;;;;;;;;;5034274;28;20252;-89
2021/06/13 11:14:27;;;;;;;3.55;1.30;;;;;;;;;;5001940;28;20638;-89
2021/06/13 11:17:52;;;;;;;4.57;1.20;;;;;;;;;;5023360;28;20201;-89
2021/06/13 11:21:18;;;;;;;3.90;0.98;;;;;;;;;;5018043;28;20234;-90
2021/06/13 11:24:47;;;;;;;2.45;1.30;;;;;;;;;;5024422;28;20193;-90
2021/06/13 11:28:12;;;;;;;6.93;1.60;;;;;;;;;;5019893;28;20184;-90
2021/06/13 11:31:21;;;;;;;4.65;1.33;;;;;;;;;;5042629;28;20187;-89
2021/06/13 11:34:26;;;;;;;3.63;1.42;;;;;;;;;;5005942;28;20521;-90
2021/06/13 11:37:30;;;;;;;4.20;1.17;;;;;;;;;;5053994;28;20654;-87
2021/06/13 11:40:38;;;;;;;4.65;1.27;;;;;;;;;;5044323;28;20234;-89
2021/06/13 11:43:44;;;;;;;2.67;1.02;;;;;;;;;;5041160;28;20195;-87
2021/06/13 11:46:53;;;;;;;4.15;1.38;;;;;;;;;;5014061;28;20192;-88
2021/06/13 11:49:58;;;;;;;4.63;1.63;;;;;;;;;;5013949;28;20212;-88
2021/06/13 11:53:05;;;;;;;3.80;1.35;;;;;;;;;;5033693;28;20196;-89
2021/06/13 11:56:12;;;;;;;2.45;1.20;;;;;;;;;;5032104;28;20541;-89
2021/06/13 11:59:21;;;;;;;3.05;1.13;;;;;;;;;;5024507;28;20231;-88
2021/06/13 12:02:26;;;;;;;4.72;1.60;;;;;;;;;;5028384;28;20178;-88
2021/06/13 12:05:31;;;;;;;3.38;1.30;;;;;;;;;;5044436;28;20183;-88
2021/06/13 12:08:40;;;;;;;3.00;1.40;;;;;;;;;;5056498;28;20198;-88
2021/06/13 12:11:55;;;;;;;2.22;1.30;;;;;;;;;;5027617;28;20547;-88
2021/06/13 12:15:06;;;;;;;4.88;1.40;;;;;;;;;;5005425;28;20188;-89
2021/06/13 12:18:15;;;;;;;2.80;1.20;;;;;;;;;;5007009;28;20181;-88
2021/06/13 12:21:26;;;;;;;1.52;1.20;;;;;;;;;;5036090;28;20210;-89
2021/06/13 12:27:21;;;;;;;3.42;1.20;;;;;;;;;;5043536;28;20192;-88
2021/06/13 12:27:57;;;;;;;4.18;1.23;;;;;;;;;;5034087;28;20201;-89
2021/06/13 12:31:01;;;;;;;2.67;1.20;;;;;;;;;;5061706;22;20231;-84
2021/06/13 12:34:06;;;;;;;4.07;1.20;;;;;;;;;;5012807;28;20642;-84
2021/06/13 12:37:18;;;;;;;2.10;1.27;;;;;;;;;;5023155;28;20544;-84
2021/06/13 12:40:22;;;;;;;2.55;1.20;;;;;;;;;;5016769;28;20208;-86
2021/06/13 12:43:46;;;;;;;3.22;1.33;;;;;;;;;;5004151;28;20209;-84
2021/06/13 12:46:51;;;;;;;3.97;1.08;;;;;;;;;;5011031;28;20191;-84
2021/06/13 12:49:57;;;;;;;4.15;1.25;;;;;;;;;;4980455;28;20544;-85
2021/06/13 12:53:04;;;;;;;1.40;1.00;;;;;;;;;;5011617;28;20196;-86
2021/06/13 12:56:09;;;;;;;4.20;1.10;;;;;;;;;;5016865;28;20189;-85
2021/06/13 12:59:14;;;;;;;3.30;1.25;;;;;;;;;;5000371;28;20197;-85
2021/06/13 13:02:18;;;;;;;3.25;1.10;;;;;;;;;;5003497;28;20222;-85
2021/06/13 13:05:23;;;;;;;8.27;1.33;;;;;;;;;;4999470;28;20202;-85
2021/06/13 13:08:27;;;;;;;2.58;0.90;;;;;;;;;;5020555;28;20539;-86
2021/06/13 13:11:40;;;;;;;4.20;1.35;;;;;;;;;;5023626;28;20210;-86
2021/06/13 13:14:44;;;;;;;2.15;1.20;;;;;;;;;;5016945;28;20185;-85
2021/06/13 13:17:50;;;;;;;2.92;1.30;;;;;;;;;;4995552;28;20677;-86
2021/06/13 13:20:57;;;;;;;6.40;1.40;;;;;;;;;;4994205;28;20230;-86
2021/06/13 13:24:03;;;;;;;3.83;1.15;;;;;;;;;;4990808;28;20648;-87
2021/06/13 13:27:09;;;;;;;1.65;1.00;;;;;;;;;;4988731;28;20180;-87
2021/06/13 13:30:32;;;;;;;6.40;1.55;;;;;;;;;;4988680;28;20188;-87
2021/06/13 13:33:39;;;;;;;2.78;1.10;;;;;;;;;;4977354;28;20178;-87
2021/06/13 13:36:45;;;;;;;3.75;1.48;;;;;;;;;;4977165;28;20186;-87
2021/06/13 13:40:08;;;;;;;2.35;0.90;;;;;;;;;;4988271;28;20221;-86
2021/06/13 13:43:12;;;;;;;1.45;1.02;;;;;;;;;;4999347;28;20180;-87
2021/06/13 13:46:26;;;;;;;2.90;1.30;;;;;;;;;;4988160;28;20179;-87
2021/06/13 13:49:32;;;;;;;4.63;1.20;;;;;;;;;;4975740;28;20193;-86
2021/06/13 13:52:36;;;;;;;2.55;1.20;;;;;;;;;;4988113;28;20217;-87
2021/06/13 13:56:04;;;;;;;2.35;1.10;;;;;;;;;;5015485;28;20195;-86
2021/06/13 13:59:09;;;;;;;5.68;1.23;;;;;;;;;;4999030;28;20183;-86
2021/06/13 14:02:13;;;;;;;2.08;0.70;;;;;;;;;;5003904;28;20212;-86
2021/06/13 14:05:17;;;;;;;4.88;1.10;;;;;;;;;;4992866;28;20181;-86
2021/06/13 14:08:22;;;;;;;3.20;1.00;;;;;;;;;;4981721;28;20528;-86
2021/06/13 14:11:26;;;;;;;5.20;1.15;;;;;;;;;;4981577;28;20216;-86
2021/06/13 14:14:32;;;;;;;2.38;0.95;;;;;;;;;;5003446;28;20189;-85
2021/06/13 14:17:36;;;;;;;3.35;1.17;;;;;;;;;;5003144;28;20186;-86
2021/06/13 14:20:40;;;;;;;3.38;1.13;;;;;;;;;;4972504;28;20210;-85
2021/06/13 14:23:44;;;;;;;2.88;1.02;;;;;;;;;;4983606;28;20181;-86
2021/06/13 14:26:49;;;;;;;1.38;0.80;;;;;;;;;;4983767;28;20188;-86
2021/06/13 14:29:53;;;;;;;2.42;1.17;;;;;;;;;;4983434;28;20529;-85
2021/06/13 14:32:57;;;;;;;1.80;0.80;;;;;;;;;;4986031;28;20180;-85
2021/06/13 14:36:02;;;;;;;5.88;1.02;;;;;;;;;;4991665;28;20532;-86
2021/06/13 14:39:06;;;;;;;1.67;1.00;;;;;;;;;;4991357;28;20181;-85
2021/06/13 14:42:10;;;;;;;1.75;1.00;;;;;;;;;;5007655;28;20552;-85
2021/06/13 14:45:16;;;;;;;2.50;0.90;;;;;;;;;;5010743;28;20203;-85
2021/06/13 14:48:22;;;;;;;2.90;0.95;;;;;;;;;;5002492;28;20185;-85
2021/06/13 14:51:27;;;;;;;1.95;0.70;;;;;;;;;;5013833;28;20220;-85
2021/06/13 14:54:31;;;;;;;2.25;1.48;;;;;;;;;;5013504;28;20581;-85
2021/06/13 14:57:36;;;;;;;2.35;1.10;;;;;;;;;;5005094;28;20191;-85
2021/06/13 15:00:41;;;;;;;1.38;0.95;;;;;;;;;;5018612;28;20224;-85
2021/06/13 15:03:45;;;;;;;2.92;1.08;;;;;;;;;;4990732;28;20181;-86
2021/06/13 15:06:50;;;;;;;2.45;1.13;;;;;;;;;;4991646;28;20174;-84
2021/06/13 15:09:54;;;;;;;1.92;0.90;;;;;;;;;;5033290;28;20181;-85
2021/06/13 15:12:58;;;;;;;3.67;0.90;;;;;;;;;;5010334;28;20183;-85
2021/06/13 15:16:02;;;;;;;2.10;1.00;;;;;;;;;;5023663;28;20179;-86
2021/06/13 15:19:07;;;;;;;2.05;1.00;;;;;;;;;;5008654;28;20551;-85
2021/06/13 15:22:12;;;;;;;2.47;0.95;;;;;;;;;;4981734;28;20229;-86
2021/06/13 15:25:16;;;;;;;3.63;1.10;;;;;;;;;;5005205;28;20194;-86
2021/06/13 15:28:22;;;;;;;5.10;1.35;;;;;;;;;;4998392;28;20183;-86
2021/06/13 15:31:29;;;;;;;4.88;1.50;;;;;;;;;;5001251;28;20227;-86
2021/06/13 15:34:33;;;;;;;2.60;1.33;;;;;;;;;;4986957;28;20188;-85
2021/06/13 15:37:39;;;;;;;1.05;0.80;;;;;;;;;;5017146;28;20202;-85
2021/06/13 15:40:43;;;;;;;4.10;1.33;;;;;;;;;;5033682;28;20234;-85
2021/06/13 15:43:48;;;;;;;3.03;1.08;;;;;;;;;;4999403;28;20181;-85
2021/06/13 15:46:54;;;;;;;4.60;1.20;;;;;;;;;;5010829;28;20177;-85
2021/06/13 15:49:58;;;;;;;3.00;1.20;;;;;;;;;;5009959;28;20182;-85
2021/06/13 15:53:04;;;;;;;2.27;1.10;;;;;;;;;;5032826;28;20181;-85
2021/06/13 15:56:10;;;;;;;3.13;1.30;;;;;;;;;;5010144;28;20200;-84
2021/06/13 15:59:25;;;;;;;1.43;0.93;;;;;;;;;;5022964;28;20178;-85
2021/06/13 16:02:29;;;;;;;5.00;1.60;;;;;;;;;;5013915;28;20231;-85
2021/06/13 16:05:33;;;;;;;1.10;1.00;;;;;;;;;;5037079;28;20182;-85
2021/06/13 16:08:38;;;;;;;3.37;1.50;;;;;;;;;;5025136;28;20197;-85
2021/06/13 16:11:45;;;;;;;3.87;1.57;;;;;;;;;;5015008;28;20214;-85
2021/06/13 16:14:50;;;;;;;2.77;1.50;;;;;;;;;;5018431;28;20173;-85
2021/06/13 16:17:54;;;;;;;4.10;1.63;;;;;;;;;;5029742;28;20209;-85
2021/06/13 16:20:58;;;;;;;2.80;1.40;;;;;;;;;;5029679;28;20232;-85
2021/06/13 16:24:02;;;;;;;1.67;1.20;;;;;;;;;;5019540;28;20173;-85
2021/06/13 16:27:09;;;;;;;3.90;1.40;;;;;;;;;;5030009;28;20530;-85
2021/06/13 16:30:14;;;;;;;6.97;1.80;;;;;;;;;;5019500;28;20177;-85
2021/06/13 16:33:18;;;;;;;2.60;1.43;;;;;;;;;;5030089;28;20169;-85
2021/06/13 16:36:22;;;;;;;5.53;1.80;;;;;;;;;;5029886;28;20177;-85
2021/06/13 16:39:27;;;;;;;3.70;1.50;;;;;;;;;;5029825;28;20536;-85
2021/06/13 16:42:31;;;;;;;3.60;1.50;;;;;;;;;;5029226;28;20228;-85
2021/06/13 16:45:37;;;;;;;3.40;1.33;;;;;;;;;;5029763;28;20631;-85
2021/06/13 16:48:41;;;;;;;2.50;1.27;;;;;;;;;;5029904;28;20177;-85
2021/06/13 16:51:46;;;;;;;3.57;1.60;;;;;;;;;;5030056;28;20212;-85
2021/06/13 16:54:53;;;;;;;2.97;1.13;;;;;;;;;;5019825;28;20177;-85
2021/06/13 16:57:58;;;;;;;3.63;1.23;;;;;;;;;;5031363;28;20185;-85
2021/06/13 17:01:03;;;;;;;3.33;1.43;;;;;;;;;;5030143;28;20229;-85
2021/06/13 17:04:07;;;;;;;2.13;1.23;;;;;;;;;;5010839;28;20193;-86
2021/06/13 17:07:11;;;;;;;5.67;1.47;;;;;;;;;;5012154;28;20185;-84
2021/06/13 17:10:16;;;;;;;6.30;1.83;;;;;;;;;;5023824;28;20200;-85
2021/06/13 17:13:22;;;;;;;3.60;1.40;;;;;;;;;;5022543;28;20193;-85
2021/06/13 17:16:26;;;;;;;4.20;1.70;;;;;;;;;;5021800;28;20537;-84
2021/06/13 17:19:30;;;;;;;4.53;1.50;;;;;;;;;;5014029;28;20538;-84
2021/06/13 17:22:45;;;;;;;2.90;1.27;;;;;;;;;;5002064;28;20228;-84
2021/06/13 17:25:54;;;;;;;2.57;1.30;;;;;;;;;;4997527;28;20197;-83
2021/06/13 17:28:58;;;;;;;3.00;1.50;;;;;;;;;;5017973;28;20201;-84
2021/06/13 17:32:03;;;;;;;6.07;1.70;;;;;;;;;;5002717;28;20708;-84
2021/06/13 17:35:08;;;;;;;6.43;1.30;;;;;;;;;;5002183;28;20193;-84
2021/06/13 17:38:12;;;;;;;3.57;1.60;;;;;;;;;;5015251;28;20591;-85
2021/06/13 17:41:16;;;;;;;2.70;1.20;;;;;;;;;;4991148;28;20221;-84
2021/06/13 17:44:21;;;;;;;2.30;1.23;;;;;;;;;;5003177;28;20192;-84
2021/06/13 17:47:26;;;;;;;3.37;1.40;;;;;;;;;;5017848;28;20192;-86
2021/06/13 17:50:32;;;;;;;4.23;1.50;;;;;;;;;;4997764;28;20196;-85
2021/06/13 17:53:36;;;;;;;19.80;3.30;;;;;;;;;;5006297;28;20193;-85
2021/06/13 17:56:41;;;;;;;20.87;2.03;;;;;;;;;;5008348;28;20192;-85
2021/06/13 17:59:46;;;;;;;5.03;1.37;;;;;;;;;;5001598;28;20688;-85
2021/06/13 18:02:50;;;;;;;4.47;1.50;;;;;;;;;;5008595;28;20204;-85
2021/06/13 18:05:55;;;;;;;3.03;1.23;;;;;;;;;;5006641;28;20525;-85
2021/06/13 18:08:59;;;;;;;5.67;1.60;;;;;;;;;;4969442;28;20186;-86
2021/06/13 18:12:05;;;;;;;5.50;1.50;;;;;;;;;;5000708;28;20217;-84
2021/06/13 18:15:10;;;;;;;2.30;1.20;;;;;;;;;;4990577;28;20525;-83
2021/06/13 18:18:14;;;;;;;3.47;1.40;;;;;;;;;;4991399;28;20723;-84
2021/06/13 18:21:19;;;;;;;1.93;0.97;;;;;;;;;;5008633;28;20240;-84
2021/06/13 18:24:24;;;;;;;3.40;1.23;;;;;;;;;;4999146;28;20647;-84
2021/06/13 18:27:29;;;;;;;5.13;1.30;;;;;;;;;;5016104;28;20270;-85
2021/06/13 18:30:33;;;;;;;1.77;1.10;;;;;;;;;;5001950;28;20200;-85
2021/06/13 18:33:37;;;;;;;1.93;1.20;;;;;;;;;;5001494;28;20189;-86
2021/06/13 18:36:42;;;;;;;7.43;1.70;;;;;;;;;;4975325;28;20723;-85
2021/06/13 18:39:46;;;;;;;6.80;1.37;;;;;;;;;;4963896;28;20197;-85